GCTS

Tenerife South Airport

Tenerife Island, Spain
METAR GCTS 191830Z 07017KT 9999 FEW020 25/20 Q1018 NOSIG
Observed Flight Rules
Sep-19 @ 18:30 UTC (24 minutes ago) Visual Flight Rules
Wind Visibility Clouds
70° at 17 knots 10,000+ meters
  • Few at 2,000' AGL
Temperatures Readings
Current 25°C / 77°F
Dewpoint 20°C / 68°F
Humidity 74%
Altimeter 30.06" Hg
Pressure 1018 hPa
Elevation 72
METAR GCTS 191830Z 07017KT 9999 FEW020 25/20 Q1018 NOSIG
Observed Flight Rules
Sep-19 @ 18:30 UTC
(24 minutes ago)
VFR
Wind Visibility
70° at 17 knots 10,000+ meters
Clouds
  • Few at 2,000' AGL
Temperature Dewpoint
25°C / 77°F 20°C / 68°F
Humidity Altimeter Pressure
74% 30.06" Hg 1018 hPa